Time;durP1;ratioP1;P1;durP2;ratioP2;P2;SDS_P1;SDS_P2;PMS_P1;PMS_P2;Temp;Humidity;BMP_temperature;BMP_pressure;BME280_temperature;BME280_humidity;BME280_pressure;Samples;Min_cycle;Max_cycle;Signal;HPM_P1;HPM_P2
2022/07/20 00:01:20;;;;;;;0.10;0.10;;;;;;;19.13;74.80;101662.50;10384391;28;20105;-73
2022/07/20 00:06:20;;;;;;;0.00;0.00;;;;;;;19.02;75.77;101655.75;10361233;28;20045;-75
2022/07/20 00:11:21;;;;;;;0.10;0.10;;;;;;;18.82;76.32;101663.69;10373124;28;20032;-75
2022/07/20 00:16:23;;;;;;;0.10;0.10;;;;;;;18.76;76.25;101657.19;10373049;28;20021;-75
2022/07/20 00:21:24;;;;;;;0.00;0.00;;;;;;;18.75;77.20;101662.78;10372393;28;20037;-75
2022/07/20 00:26:25;;;;;;;0.10;0.10;;;;;;;18.60;78.54;101653.88;10372105;28;20028;-75
2022/07/20 00:31:25;;;;;;;0.00;0.00;;;;;;;18.41;80.21;101653.47;10371211;28;20020;-75
2022/07/20 00:36:25;;;;;;;0.10;0.10;;;;;;;18.23;81.44;101653.88;10380877;28;20061;-75
2022/07/20 00:41:26;;;;;;;0.10;0.10;;;;;;;18.10;82.85;101648.34;10404846;28;20032;-75
2022/07/20 00:46:28;;;;;;;0.10;0.10;;;;;;;18.10;81.93;101657.28;10411820;28;20489;-75
2022/07/20 00:51:29;;;;;;;0.10;0.10;;;;;;;18.14;82.18;101640.72;10412188;28;20339;-74
2022/07/20 00:56:30;;;;;;;0.10;0.10;;;;;;;18.16;82.65;101644.06;10411525;28;20022;-75
2022/07/20 01:01:31;;;;;;;0.10;0.10;;;;;;;18.05;83.56;101643.50;10411325;28;20018;-74
2022/07/20 01:06:32;;;;;;;0.10;0.10;;;;;;;17.94;84.86;101640.47;10392156;28;20167;-74
2022/07/20 01:11:34;;;;;;;0.10;0.10;;;;;;;17.80;86.77;101632.22;10379124;28;20036;-74
2022/07/20 01:16:35;;;;;;;0.10;0.10;;;;;;;17.65;87.75;101624.09;10401599;28;20024;-75
2022/07/20 01:21:40;;;;;;;0.10;0.10;;;;;;;17.54;88.24;101624.59;10411051;28;20026;-75
2022/07/20 01:26:44;;;;;;;0.10;0.10;;;;;;;17.44;88.90;101615.94;10392419;28;20021;-75
2022/07/20 01:31:44;;;;;;;0.10;0.10;;;;;;;17.31;90.24;101619.28;10410730;28;20414;-75
2022/07/20 01:36:45;;;;;;;0.10;0.10;;;;;;;17.16;91.96;101613.00;10371230;28;20449;-75
2022/07/20 01:41:52;;;;;;;0.10;0.10;;;;;;;17.08;92.51;101613.94;10369400;28;20025;-75
2022/07/20 01:46:53;;;;;;;0.10;0.10;;;;;;;17.07;92.59;101608.72;10368778;28;20072;-75
2022/07/20 01:51:54;;;;;;;0.10;0.10;;;;;;;16.95;93.10;101602.94;10377881;28;20088;-75
2022/07/20 01:56:54;;;;;;;0.10;0.10;;;;;;;17.26;86.42;101593.91;10368744;28;20492;-75
2022/07/20 02:01:55;;;;;;;0.10;0.10;;;;;;;17.68;81.02;101592.41;10350897;28;20026;-75
2022/07/20 02:06:55;;;;;;;0.10;0.10;;;;;;;18.07;79.68;101598.34;10376598;28;20018;-75
2022/07/20 02:11:55;;;;;;;0.10;0.10;;;;;;;18.23;78.10;101597.25;10368261;28;20018;-75
2022/07/20 02:16:55;;;;;;;0.00;0.00;;;;;;;18.35;77.32;101584.09;10391375;28;20488;-75
2022/07/20 02:21:56;;;;;;;0.10;0.10;;;;;;;18.44;76.54;101588.38;10408516;28;20043;-75
2022/07/20 02:26:56;;;;;;;0.10;0.10;;;;;;;18.46;75.72;101586.28;10395597;28;20452;-75
2022/07/20 02:31:56;;;;;;;0.10;0.10;;;;;;;18.47;77.12;101590.69;10350276;28;20404;-75
2022/07/20 02:36:57;;;;;;;0.10;0.10;;;;;;;18.25;78.24;101580.91;10375604;28;20036;-75
2022/07/20 02:41:57;;;;;;;0.10;0.10;;;;;;;17.87;79.78;101581.94;10367601;28;20477;-75
2022/07/20 02:46:57;;;;;;;0.10;0.10;;;;;;;17.62;81.82;101573.28;10369148;28;20018;-74
2022/07/20 02:51:58;;;;;;;0.10;0.10;;;;;;;17.35;84.11;101566.72;10409817;28;20473;-74
2022/07/20 02:56:58;;;;;;;0.10;0.10;;;;;;;17.17;84.81;101569.78;10421867;28;20028;-75
2022/07/20 03:01:58;;;;;;;0.10;0.10;;;;;;;17.11;84.85;101562.44;10421361;28;20033;-74
2022/07/20 03:06:59;;;;;;;0.10;0.10;;;;;;;17.13;83.99;101565.78;10404528;28;20022;-74
2022/07/20 03:11:59;;;;;;;0.10;0.10;;;;;;;17.19;83.49;101562.34;10380469;28;20052;-74
2022/07/20 03:16:59;;;;;;;0.10;0.10;;;;;;;17.26;83.22;101561.63;10380062;28;20025;-74
2022/07/20 03:21:59;;;;;;;0.10;0.10;;;;;;;17.22;83.99;101550.38;10380202;28;20042;-74
2022/07/20 03:27:00;;;;;;;0.10;0.10;;;;;;;17.15;83.61;101552.97;10379776;28;20034;-74
2022/07/20 03:32:00;;;;;;;0.10;0.10;;;;;;;17.23;83.31;101561.97;10420375;28;20416;-74
2022/07/20 03:37:00;;;;;;;0.10;0.10;;;;;;;17.37;81.93;101556.59;10402319;28;20054;-74
2022/07/20 03:42:01;;;;;;;0.10;0.10;;;;;;;17.60;80.97;101558.34;10387666;28;20033;-74
2022/07/20 03:47:01;;;;;;;0.10;0.10;;;;;;;17.90;78.99;101561.84;10396174;28;20072;-74
2022/07/20 03:52:01;;;;;;;0.10;0.10;;;;;;;18.31;77.50;101566.66;10399730;28;20034;-75
2022/07/20 03:57:02;;;;;;;0.10;0.10;;;;;;;18.82;75.17;101566.53;10379349;28;20152;-74
2022/07/20 04:02:03;;;;;;;0.10;0.10;;;;;;;19.51;72.13;101575.69;10353403;28;20090;-74
2022/07/20 04:07:03;;;;;;;0.10;0.10;;;;;;;20.26;68.50;101561.22;10379353;28;20022;-74
2022/07/20 04:12:04;;;;;;;0.10;0.10;;;;;;;21.07;65.04;101575.63;10377967;28;20045;-74
2022/07/20 04:17:04;;;;;;;0.10;0.10;;;;;;;21.85;63.47;101572.94;10385148;28;20034;-74
2022/07/20 04:22:05;;;;;;;0.00;0.00;;;;;;;22.70;61.49;101570.75;10379931;28;20021;-74
2022/07/20 04:27:05;;;;;;;0.10;0.10;;;;;;;23.38;59.15;101572.59;10397277;28;20021;-74
2022/07/20 04:32:06;;;;;;;0.10;0.10;;;;;;;24.19;56.17;101565.13;10381599;28;20048;-74
2022/07/20 04:37:06;;;;;;;0.10;0.10;;;;;;;25.00;54.52;101576.41;10382379;28;20030;-74
2022/07/20 04:42:07;;;;;;;0.00;0.00;;;;;;;25.71;52.95;101571.69;10357690;28;20038;-74
2022/07/20 04:47:07;;;;;;;0.00;0.00;;;;;;;26.28;53.40;101571.72;10382902;28;20021;-75
2022/07/20 04:52:07;;;;;;;0.03;0.03;;;;;;;26.99;52.00;101566.59;10376130;28;20034;-75
2022/07/20 04:57:08;;;;;;;0.10;0.10;;;;;;;27.66;51.26;101559.31;10381895;28;20018;-75
2022/07/20 05:02:08;;;;;;;0.00;0.00;;;;;;;28.09;48.71;101568.59;10393694;28;20033;-74
2022/07/20 05:07:09;;;;;;;0.10;0.10;;;;;;;28.56;49.11;101562.47;10378467;28;20105;-75
2022/07/20 05:12:09;;;;;;;0.10;0.10;;;;;;;29.18;47.11;101561.00;10377959;28;20029;-75
2022/07/20 05:17:09;;;;;;;0.10;0.10;;;;;;;29.88;47.28;101553.34;10373955;28;20026;-75
2022/07/20 05:22:10;;;;;;;0.10;0.10;;;;;;;30.57;46.57;101552.84;10374283;28;20030;-76
2022/07/20 05:27:11;;;;;;;;;;;;;;;30.64;44.94;101555.34;10381371;28;20046;-76
2022/07/20 05:32:11;;;;;;;0.10;0.10;;;;;;;30.66;45.83;101562.22;10369287;28;19916;-75
2022/07/20 05:37:12;;;;;;;0.10;0.10;;;;;;;30.97;44.79;101561.38;10373608;28;20033;-76
2022/07/20 05:42:12;;;;;;;0.10;0.10;;;;;;;31.44;44.44;101555.44;10375898;28;20026;-75
2022/07/20 05:47:13;;;;;;;0.10;0.10;;;;;;;32.07;42.81;101543.84;10377918;28;20022;-75
2022/07/20 05:52:13;;;;;;;;;;;;;;;32.25;40.20;101553.34;10374772;28;20469;-75
2022/07/20 05:57:14;;;;;;;0.10;0.10;;;;;;;32.73;40.11;101558.22;10376310;28;19920;-75
2022/07/20 06:02:14;;;;;;;0.10;0.10;;;;;;;33.07;33.74;101564.47;10373013;28;20018;-75
2022/07/20 06:07:14;;;;;;;0.10;0.10;;;;;;;32.96;35.02;101562.09;10382255;28;20021;-75
2022/07/20 06:12:15;;;;;;;0.10;0.10;;;;;;;32.87;35.13;101559.16;10386483;28;20029;-75
2022/07/20 06:17:15;;;;;;;0.10;0.10;;;;;;;32.95;34.28;101565.97;10379360;28;20026;-75
2022/07/20 06:22:16;;;;;;;0.10;0.10;;;;;;;32.76;33.51;101563.97;10370792;28;20025;-75
2022/07/20 06:27:16;;;;;;;0.10;0.10;;;;;;;33.02;34.23;101572.84;10374201;28;20049;-75
2022/07/20 06:32:16;;;;;;;0.10;0.10;;;;;;;32.83;34.06;101572.72;10373287;28;20454;-75
2022/07/20 06:37:17;;;;;;;0.10;0.10;;;;;;;32.59;33.18;101574.59;10382204;28;20022;-75
2022/07/20 06:42:18;;;;;;;0.10;0.10;;;;;;;32.73;34.60;101564.53;10371968;28;20022;-75
2022/07/20 06:47:18;;;;;;;0.10;0.10;;;;;;;32.85;34.40;101572.44;10381565;28;20057;-75
2022/07/20 06:52:18;;;;;;;0.10;0.10;;;;;;;33.09;33.03;101572.47;10370519;28;20021;-75
2022/07/20 06:57:19;;;;;;;0.10;0.10;;;;;;;33.23;32.76;101565.13;10374671;28;20053;-73
2022/07/20 07:02:19;;;;;;;0.10;0.10;;;;;;;33.15;33.59;101574.06;10371612;28;20078;-74
2022/07/20 07:07:19;;;;;;;0.10;0.10;;;;;;;33.51;33.02;101573.63;10377891;28;20057;-74
2022/07/20 07:12:20;;;;;;;0.10;0.10;;;;;;;33.75;32.76;101571.69;10369156;28;20026;-75
2022/07/20 07:17:20;;;;;;;0.10;0.10;;;;;;;34.18;33.95;101570.78;10373699;28;20030;-74
2022/07/20 07:22:20;;;;;;;0.10;0.10;;;;;;;34.35;32.91;101564.72;10371840;28;20083;-75
2022/07/20 07:27:21;;;;;;;0.10;0.10;;;;;;;34.66;32.85;101568.63;10374044;28;20025;-75
2022/07/20 07:32:21;;;;;;;0.10;0.10;;;;;;;34.70;31.51;101566.91;10397848;28;20095;-75
2022/07/20 07:37:22;;;;;;;0.10;0.10;;;;;;;34.70;32.47;101566.06;10394317;28;20104;-75
2022/07/20 07:42:22;;;;;;;0.10;0.10;;;;;;;34.83;32.50;101564.47;10405853;28;20024;-75
2022/07/20 07:47:23;;;;;;;0.10;0.10;;;;;;;34.68;34.75;101563.63;10396027;28;20057;-75
2022/07/20 07:52:23;;;;;;;0.10;0.10;;;;;;;34.64;34.04;101561.75;10411920;28;20478;-75
2022/07/20 07:57:23;;;;;;;0.10;0.10;;;;;;;34.40;31.36;101565.44;10423620;28;20400;-75
2022/07/20 08:02:24;;;;;;;0.10;0.10;;;;;;;34.12;32.95;101570.03;10406206;28;20025;-75
2022/07/20 08:07:24;;;;;;;0.10;0.10;;;;;;;34.39;34.66;101563.00;10417752;28;20080;-75
2022/07/20 08:12:24;;;;;;;0.10;0.10;;;;;;;34.46;33.59;101557.88;10410165;28;20432;-75
2022/07/20 08:17:24;;;;;;;0.10;0.10;;;;;;;34.49;34.36;101560.03;10401465;28;20468;-75
2022/07/20 08:22:25;;;;;;;0.10;0.10;;;;;;;34.60;35.82;101555.19;10430234;28;20535;-75
2022/07/20 08:27:25;;;;;;;0.10;0.10;;;;;;;35.24;35.79;101563.69;10409337;28;20041;-76
2022/07/20 08:32:26;;;;;;;0.10;0.10;;;;;;;35.64;33.68;101564.78;10409489;28;20550;-76
2022/07/20 08:37:26;;;;;;;0.10;0.10;;;;;;;35.92;33.70;101562.75;10405054;28;20025;-76
2022/07/20 08:42:27;;;;;;;0.10;0.10;;;;;;;35.92;34.23;101562.75;10403463;28;20499;-76
2022/07/20 08:47:30;;;;;;;0.10;0.10;;;;;;;35.71;32.94;101556.88;10401524;28;21454;-76
2022/07/20 08:52:31;;;;;;;0.10;0.10;;;;;;;35.34;35.58;101561.53;10367940;28;20037;-75
2022/07/20 08:57:31;;;;;;;0.10;0.10;;;;;;;35.23;32.95;101562.03;10376675;28;20018;-75
2022/07/20 09:03:03;;;;;;;0.10;0.10;;;;;;;35.24;33.60;101558.16;10378730;28;20035;-75
2022/07/20 09:08:05;;;;;;;0.10;0.10;;;;;;;35.23;35.44;101564.78;10380274;28;20034;-75
2022/07/20 09:13:21;;;;;;;0.10;0.10;;;;;;;35.22;34.76;101554.84;10368794;28;20026;-75
2022/07/20 09:18:26;;;;;;;0.10;0.10;;;;;;;35.34;34.93;101556.00;10376304;28;20029;-75
2022/07/20 09:23:33;;;;;;;0.10;0.10;;;;;;;35.15;35.54;101553.31;10369914;28;20377;-74
2022/07/20 09:28:53;;;;;;;0.10;0.10;;;;;;;35.49;35.75;101552.06;10392419;28;20033;-74
2022/07/20 09:34:17;;;;;;;;;;;;;;;35.45;34.13;101553.81;10382526;28;20729;-75
2022/07/20 09:39:21;;;;;;;0.10;0.10;;;;;;;35.44;34.42;101541.09;10398013;28;19910;-74
2022/07/20 09:44:26;;;;;;;0.03;0.03;;;;;;;35.74;33.63;101539.63;10376824;28;20018;-74
2022/07/20 09:49:33;;;;;;;0.10;0.10;;;;;;;36.00;33.37;101547.34;10379260;28;20025;-74
2022/07/20 09:54:33;;;;;;;0.10;0.10;;;;;;;35.95;34.23;101545.50;10372375;28;20018;-74
2022/07/20 09:59:35;;;;;;;0.10;0.10;;;;;;;36.19;32.88;101550.78;10368404;28;20029;-74
2022/07/20 10:04:35;;;;;;;0.10;0.10;;;;;;;36.18;32.12;101545.53;10381539;28;20048;-74
2022/07/20 10:09:36;;;;;;;0.00;0.00;;;;;;;36.13;30.69;101540.09;10382725;28;20023;-74
2022/07/20 10:14:38;;;;;;;0.10;0.10;;;;;;;36.26;31.44;101540.03;10370384;28;20029;-74
2022/07/20 10:19:47;;;;;;;0.10;0.10;;;;;;;36.50;32.01;101539.69;10381217;28;20485;-74
2022/07/20 10:25:17;;;;;;;0.10;0.10;;;;;;;36.85;32.71;101539.09;10408295;28;20503;-73
2022/07/20 10:30:19;;;;;;;0.10;0.10;;;;;;;36.86;30.90;101536.00;10390617;28;20393;-74
2022/07/20 10:35:28;;;;;;;0.10;0.10;;;;;;;37.23;32.66;101533.03;10377389;28;20516;-74
2022/07/20 10:40:28;;;;;;;0.10;0.10;;;;;;;37.55;32.66;101540.16;10390685;28;20052;-74
2022/07/20 10:45:30;;;;;;;0.10;0.10;;;;;;;37.68;32.38;101533.63;10366193;28;20384;-73
2022/07/20 10:50:33;;;;;;;0.10;0.10;;;;;;;37.42;29.53;101525.25;10349690;28;20271;-74
2022/07/20 10:55:34;;;;;;;0.10;0.10;;;;;;;37.77;31.47;101525.28;10369121;28;20029;-73
2022/07/20 11:01:05;;;;;;;0.10;0.10;;;;;;;37.91;29.55;101525.94;10370925;28;20033;-73
2022/07/20 11:06:14;;;;;;;0.10;0.10;;;;;;;38.05;31.06;101517.44;10372768;28;20120;-74
2022/07/20 11:11:16;;;;;;;0.10;0.10;;;;;;;37.94;27.46;101516.16;10372558;28;20026;-74
2022/07/20 11:16:19;;;;;;;0.10;0.10;;;;;;;37.80;28.94;101519.06;10382184;28;20017;-74
2022/07/20 11:21:40;;;;;;;0.10;0.10;;;;;;;37.79;28.81;101525.78;10375192;28;20424;-73
2022/07/20 11:26:41;;;;;;;0.10;0.10;;;;;;;37.78;27.30;101518.56;10352079;28;20025;-73
2022/07/20 11:31:41;;;;;;;0.10;0.10;;;;;;;37.68;27.71;101514.19;10379268;28;20017;-74
2022/07/20 11:36:42;;;;;;;0.10;0.10;;;;;;;37.75;29.29;101511.72;10379088;28;20033;-73
2022/07/20 11:41:43;;;;;;;0.10;0.10;;;;;;;37.81;29.48;101510.41;10364084;28;20075;-73
2022/07/20 11:46:45;;;;;;;0.10;0.10;;;;;;;38.05;27.17;101509.94;10359109;28;20397;-73
2022/07/20 11:51:58;;;;;;;0.10;0.10;;;;;;;38.17;28.11;101506.47;10373275;28;20025;-73
2022/07/20 11:56:59;;;;;;;0.10;0.10;;;;;;;38.22;27.98;101486.81;10373218;28;20113;-74
2022/07/20 12:02:02;;;;;;;0.10;0.10;;;;;;;37.98;26.15;101501.25;10373824;28;20607;-74
2022/07/20 12:08:07;;;;;;;0.10;0.10;;;;;;;37.99;27.93;101486.22;10372581;28;20026;-74
2022/07/20 12:12:46;;;;;;;0.10;0.10;;;;;;;38.05;26.49;101473.78;10392573;28;20032;-74
2022/07/20 12:17:51;;;;;;;0.10;0.10;;;;;;;37.84;25.61;101493.06;10413199;28;20025;-74
2022/07/20 12:22:57;;;;;;;0.10;0.10;;;;;;;37.85;25.96;101477.22;10390418;28;20194;-74
2022/07/20 12:27:57;;;;;;;0.10;0.10;;;;;;;37.99;25.76;101466.75;10370059;28;20025;-74
2022/07/20 12:33:14;;;;;;;0.10;0.10;;;;;;;38.16;25.75;101467.84;10361854;28;20029;-73
2022/07/20 12:38:15;;;;;;;0.10;0.10;;;;;;;37.95;26.34;101470.53;10374876;28;20386;-73
2022/07/20 12:43:31;;;;;;;0.10;0.10;;;;;;;37.97;25.80;101459.91;10374792;28;20017;-74
2022/07/20 12:48:32;;;;;;;0.10;0.10;;;;;;;38.11;26.10;101452.19;10371681;28;20386;-74
2022/07/20 12:53:38;;;;;;;0.10;0.10;;;;;;;38.20;26.31;101463.28;10371141;28;20021;-73
2022/07/20 12:58:38;;;;;;;0.10;0.10;;;;;;;38.26;23.95;101454.41;10376447;28;20021;-73
2022/07/20 13:03:38;;;;;;;0.10;0.10;;;;;;;38.28;25.00;101451.28;10399873;28;20071;-74
2022/07/20 13:08:38;;;;;;;0.10;0.10;;;;;;;38.22;23.85;101444.28;10403868;28;20025;-74
2022/07/20 13:13:39;;;;;;;0.10;0.10;;;;;;;38.32;24.95;101441.13;10374383;28;20018;-74
2022/07/20 13:18:39;;;;;;;0.10;0.10;;;;;;;38.42;23.54;101437.19;10370243;28;20076;-73
2022/07/20 13:23:39;;;;;;;0.10;0.10;;;;;;;38.39;25.54;101440.63;10370824;28;20321;-74
2022/07/20 13:28:40;;;;;;;0.10;0.10;;;;;;;38.41;26.43;101432.78;10369799;28;20091;-74
2022/07/20 13:33:40;;;;;;;0.10;0.10;;;;;;;38.39;26.60;101441.44;10369638;28;20014;-73
2022/07/20 13:38:41;;;;;;;0.10;0.10;;;;;;;38.42;27.96;101467.81;10355572;28;20030;-73
2022/07/20 13:43:41;;;;;;;0.10;0.10;;;;;;;36.64;34.91;101492.47;10371285;28;20296;-73
2022/07/20 13:48:42;;;;;;;0.10;0.10;;;;;;;34.67;37.76;101509.38;10407078;28;20057;-74
2022/07/20 13:53:42;;;;;;;0.10;0.10;;;;;;;33.54;40.66;101509.53;10407185;28;20021;-72
2022/07/20 13:58:42;;;;;;;0.10;0.10;;;;;;;32.84;43.64;101516.44;10409082;28;20107;-73
2022/07/20 14:03:43;;;;;;;0.10;0.10;;;;;;;32.53;45.71;101517.88;10408803;28;20112;-74
2022/07/20 14:08:43;;;;;;;0.10;0.10;;;;;;;32.29;47.64;101531.53;10403440;28;20714;-72
2022/07/20 14:13:44;;;;;;;;;;;;;;;31.85;49.73;101524.94;10372821;28;20384;-73
2022/07/20 14:18:44;;;;;;;0.10;0.10;;;;;;;31.44;51.78;101538.94;10368218;28;19913;-75
2022/07/20 14:23:45;;;;;;;0.10;0.10;;;;;;;31.06;53.46;101538.50;10368596;28;20037;-73
2022/07/20 14:28:46;;;;;;;;;;;;;;;30.78;51.07;101536.34;10367347;28;20025;-73
2022/07/20 14:33:46;;;;;;;;;;;;;;;30.57;48.73;101543.78;10408577;28;19909;-73
2022/07/20 14:38:46;;;;;;;0.10;0.10;;;;;;;30.27;44.64;101553.69;10399738;28;20327;-72
2022/07/20 14:43:47;;;;;;;0.10;0.10;;;;;;;30.07;44.42;101559.94;10371661;28;20025;-73
2022/07/20 14:48:48;;;;;;;0.10;0.10;;;;;;;29.92;42.05;101562.69;10366667;28;20392;-73
2022/07/20 14:53:48;;;;;;;0.10;0.10;;;;;;;29.78;40.78;101568.66;10367101;28;20028;-73
2022/07/20 14:58:49;;;;;;;0.07;0.07;;;;;;;29.83;42.06;101558.81;10367339;28;20545;-73
2022/07/20 15:03:49;;;;;;;0.10;0.10;;;;;;;29.74;39.87;101559.34;10372605;28;20604;-73
2022/07/20 15:08:49;;;;;;;0.10;0.10;;;;;;;29.43;38.82;101547.38;10381700;28;20014;-74
2022/07/20 15:13:50;;;;;;;0.10;0.10;;;;;;;29.39;39.85;101554.50;10405307;28;20481;-74
2022/07/20 15:18:50;;;;;;;0.10;0.10;;;;;;;29.21;40.20;101555.81;10406291;28;20485;-75
2022/07/20 15:23:51;;;;;;;0.10;0.10;;;;;;;29.25;40.75;101558.84;10390868;28;20041;-74
2022/07/20 15:28:51;;;;;;;0.00;0.00;;;;;;;29.14;40.40;101554.38;10408776;28;20390;-74
2022/07/20 15:33:51;;;;;;;0.10;0.10;;;;;;;29.04;40.10;101535.97;10408276;28;20385;-74
2022/07/20 15:38:52;;;;;;;0.03;0.03;;;;;;;29.11;41.57;101574.94;10385912;28;20025;-73
2022/07/20 15:43:52;;;;;;;0.10;0.10;;;;;;;28.87;42.70;101567.09;10408102;28;20021;-74
2022/07/20 15:48:55;;;;;;;0.00;0.00;;;;;;;28.67;42.48;101570.50;10408687;28;20026;-74
2022/07/20 15:53:55;;;;;;;0.10;0.10;;;;;;;28.53;44.81;101580.25;10407861;28;20029;-74
2022/07/20 15:58:56;;;;;;;0.00;0.00;;;;;;;28.36;48.29;101574.03;10409081;28;20025;-74
2022/07/20 16:03:56;;;;;;;0.10;0.10;;;;;;;28.30;49.72;101589.59;10415243;28;20384;-75
2022/07/20 16:08:56;;;;;;;0.10;0.10;;;;;;;28.16;48.27;101585.66;10415485;28;20025;-74
2022/07/20 16:13:56;;;;;;;0.10;0.10;;;;;;;28.13;47.68;101573.31;10414938;28;20492;-74
2022/07/20 16:18:57;;;;;;;0.00;0.00;;;;;;;27.92;49.63;101580.44;10415166;28;20064;-74
2022/07/20 16:23:57;;;;;;;0.10;0.10;;;;;;;27.81;49.78;101577.84;10413834;28;20034;-74
2022/07/20 16:28:57;;;;;;;0.10;0.10;;;;;;;27.55;50.07;101566.59;10393352;28;20033;-74
2022/07/20 16:34:00;;;;;;;0.10;0.10;;;;;;;27.39;51.13;101568.28;10415840;28;20053;-74
2022/07/20 16:39:01;;;;;;;0.10;0.10;;;;;;;27.22;51.98;101565.59;10415144;28;20021;-74
2022/07/20 16:44:02;;;;;;;0.08;0.08;;;;;;;27.08;53.98;101578.81;10381370;28;20105;-74
2022/07/20 16:49:03;;;;;;;0.10;0.10;;;;;;;27.02;54.92;101570.75;10371798;28;20068;-74
2022/07/20 16:54:04;;;;;;;0.10;0.10;;;;;;;26.81;54.80;101564.16;10391950;28;20092;-74
2022/07/20 16:59:04;;;;;;;0.00;0.00;;;;;;;26.60;56.62;101552.91;10376696;28;20436;-74
2022/07/20 17:04:04;;;;;;;0.03;0.03;;;;;;;26.42;56.87;101556.69;10396020;28;20793;-74
2022/07/20 17:09:04;;;;;;;0.10;0.10;;;;;;;26.17;57.66;101556.22;10408168;28;20087;-74
2022/07/20 17:14:06;;;;;;;0.10;0.10;;;;;;;25.86;59.29;101555.69;10411264;28;20022;-74
2022/07/20 17:19:24;;;;;;;0.00;0.00;;;;;;;25.67;61.20;101565.91;10412955;28;20099;-74
2022/07/20 17:24:26;;;;;;;0.10;0.10;;;;;;;25.48;61.12;101556.22;10392938;28;20032;-75
2022/07/20 17:29:27;;;;;;;0.10;0.10;;;;;;;25.31;61.63;101556.16;10406991;28;20555;-74
2022/07/20 17:34:27;;;;;;;0.00;0.00;;;;;;;25.19;62.82;101561.63;10393689;28;20090;-74
2022/07/20 17:39:27;;;;;;;0.00;0.00;;;;;;;25.08;62.88;101555.09;10412044;28;20731;-74
2022/07/20 17:44:28;;;;;;;0.10;0.10;;;;;;;24.98;64.01;101557.56;10411524;28;20393;-74
2022/07/20 17:49:28;;;;;;;0.00;0.00;;;;;;;24.85;64.55;101557.81;10411480;28;20048;-74
2022/07/20 17:54:29;;;;;;;0.10;0.10;;;;;;;24.76;65.45;101560.06;10411055;28;20023;-75
2022/07/20 17:59:29;;;;;;;0.00;0.00;;;;;;;24.70;65.96;101566.47;10393254;28;20423;-74
2022/07/20 18:04:30;;;;;;;0.00;0.00;;;;;;;24.58;66.46;101557.41;10410811;28;20088;-74
2022/07/20 18:09:30;;;;;;;0.07;0.07;;;;;;;24.46;67.03;101551.94;10411417;28;20033;-74
2022/07/20 18:14:30;;;;;;;0.07;0.07;;;;;;;24.36;67.85;101576.19;10410584;28;20392;-74
2022/07/20 18:19:31;;;;;;;0.00;0.00;;;;;;;24.21;69.41;101583.97;10410800;28;20037;-74
2022/07/20 18:24:32;;;;;;;0.00;0.00;;;;;;;24.08;69.93;101576.78;10409799;28;20033;-73
2022/07/20 18:29:32;;;;;;;0.00;0.00;;;;;;;23.94;70.63;101576.16;10409982;28;20547;-74
2022/07/20 18:34:32;;;;;;;0.10;0.10;;;;;;;23.80;71.86;101580.13;10409732;28;20527;-74
2022/07/20 18:39:33;;;;;;;0.00;0.00;;;;;;;23.66;72.74;101572.09;10410419;28;20025;-74
2022/07/20 18:44:33;;;;;;;0.10;0.10;;;;;;;23.53;74.93;101593.16;10409354;28;20035;-74
2022/07/20 18:49:33;;;;;;;0.00;0.00;;;;;;;23.42;74.75;101581.16;10410139;28;20036;-74
2022/07/20 18:54:34;;;;;;;0.00;0.00;;;;;;;23.29;76.10;101576.69;10391477;28;20033;-74
2022/07/20 18:59:34;;;;;;;0.10;0.10;;;;;;;23.18;76.66;101588.28;10409135;28;20025;-74
2022/07/20 19:04:35;;;;;;;0.10;0.10;;;;;;;23.07;78.02;101611.63;10408877;28;20025;-74
2022/07/20 19:09:35;;;;;;;0.10;0.10;;;;;;;22.95;78.17;101611.53;10409366;28;20031;-74
2022/07/20 19:14:35;;;;;;;0.10;0.10;;;;;;;22.84;78.74;101606.78;10408706;28;20021;-75
2022/07/20 19:19:36;;;;;;;0.00;0.00;;;;;;;22.70;79.87;101610.66;10409175;28;20033;-75
2022/07/20 19:24:36;;;;;;;0.10;0.10;;;;;;;22.55;81.93;101613.69;10408204;28;20778;-75
2022/07/20 19:29:36;;;;;;;0.00;0.00;;;;;;;22.38;83.48;101614.19;10408644;28;20346;-75
2022/07/20 19:34:37;;;;;;;0.00;0.00;;;;;;;22.20;87.36;101610.56;10392338;28;20021;-75
2022/07/20 19:39:37;;;;;;;0.10;0.10;;;;;;;21.97;89.45;101625.44;10416611;28;20507;-75
2022/07/20 19:44:37;;;;;;;0.08;0.08;;;;;;;21.79;90.54;101626.16;10415960;28;20026;-75
2022/07/20 19:49:38;;;;;;;0.00;0.00;;;;;;;21.64;92.86;101617.44;10416369;28;20052;-75
2022/07/20 19:54:38;;;;;;;0.00;0.00;;;;;;;21.48;96.00;101619.56;10415242;28;20021;-75
2022/07/20 19:59:39;;;;;;;0.10;0.10;;;;;;;21.37;97.51;101625.63;10415567;28;20272;-75
2022/07/20 20:04:43;;;;;;;0.10;0.10;;;;;;;21.31;95.96;101628.31;10415373;28;20082;-75
2022/07/20 20:09:43;;;;;;;0.00;0.00;;;;;;;21.31;93.11;101622.91;10415593;28;20049;-75
2022/07/20 20:14:44;;;;;;;0.10;0.10;;;;;;;21.28;92.37;101634.16;10414674;28;20454;-75
2022/07/20 20:19:44;;;;;;;0.00;0.00;;;;;;;21.20;93.08;101624.38;10415275;28;20055;-74
2022/07/20 20:24:44;;;;;;;0.10;0.10;;;;;;;21.13;95.61;101621.66;10410762;28;20564;-74
2022/07/20 20:29:45;;;;;;;0.00;0.00;;;;;;;21.05;97.49;101624.59;10354177;28;20028;-74
2022/07/20 20:34:45;;;;;;;0.00;0.00;;;;;;;20.91;98.90;101622.94;10372217;28;20017;-74
2022/07/20 20:39:45;;;;;;;0.00;0.00;;;;;;;20.80;99.80;101622.53;10375101;28;20025;-74
2022/07/20 20:44:46;;;;;;;0.00;0.00;;;;;;;20.68;100.00;101612.50;10409684;28;20029;-74
2022/07/20 20:49:46;;;;;;;0.00;0.00;;;;;;;20.56;100.00;101614.97;10411745;28;20033;-74
2022/07/20 20:54:46;;;;;;;0.10;0.10;;;;;;;20.45;100.00;101620.97;10394100;28;20017;-74
2022/07/20 20:59:47;;;;;;;0.07;0.07;;;;;;;20.33;100.00;101623.44;10378711;28;20021;-74
2022/07/20 21:04:47;;;;;;;0.00;0.00;;;;;;;20.24;100.00;101614.69;10370609;28;20032;-74
2022/07/20 21:09:47;;;;;;;0.10;0.10;;;;;;;20.22;100.00;101613.25;10371276;28;20030;-74
2022/07/20 21:14:48;;;;;;;0.10;0.10;;;;;;;20.21;98.19;101604.25;10353031;28;20014;-74
2022/07/20 21:19:48;;;;;;;0.00;0.00;;;;;;;20.19;97.74;101605.50;10377216;28;20025;-74
2022/07/20 21:24:48;;;;;;;0.00;0.00;;;;;;;20.08;97.51;101602.38;10406744;28;20433;-74
2022/07/20 21:29:49;;;;;;;0.00;0.00;;;;;;;20.00;97.39;101591.72;10376173;28;20422;-74
2022/07/20 21:34:49;;;;;;;0.10;0.10;;;;;;;19.88;98.44;101582.53;10371021;28;20033;-74
2022/07/20 21:39:49;;;;;;;0.10;0.10;;;;;;;19.74;99.23;101581.66;10407884;28;20056;-74
2022/07/20 21:44:50;;;;;;;0.00;0.00;;;;;;;19.64;98.83;101581.16;10409687;28;20025;-74
2022/07/20 21:49:50;;;;;;;0.00;0.00;;;;;;;19.60;98.89;101580.72;10375954;28;20051;-74
2022/07/20 21:54:51;;;;;;;0.00;0.00;;;;;;;19.56;98.86;101581.31;10370911;28;20025;-74
2022/07/20 21:59:51;;;;;;;0.10;0.10;;;;;;;19.48;100.00;101578.78;10352768;28;20413;-74
2022/07/20 22:04:52;;;;;;;0.10;0.10;;;;;;;19.41;100.00;101590.41;10383431;28;20063;-74
2022/07/20 22:09:52;;;;;;;0.10;0.10;;;;;;;19.35;100.00;101585.78;10390413;28;20071;-75
2022/07/20 22:14:52;;;;;;;0.10;0.10;;;;;;;19.30;100.00;101577.44;10408826;28;20018;-75
2022/07/20 22:19:52;;;;;;;0.03;0.03;;;;;;;19.26;100.00;101573.47;10408933;28;20306;-74
2022/07/20 22:24:53;;;;;;;0.10;0.10;;;;;;;19.20;100.00;101576.97;10406299;28;20095;-74
2022/07/20 22:29:53;;;;;;;0.10;0.10;;;;;;;19.13;100.00;101582.31;10369366;28;20030;-74
2022/07/20 22:34:53;;;;;;;0.10;0.10;;;;;;;19.08;100.00;101586.63;10367445;28;20033;-74
2022/07/20 22:39:54;;;;;;;0.00;0.00;;;;;;;19.01;100.00;101586.59;10367914;28;20030;-74
2022/07/20 22:44:54;;;;;;;0.10;0.10;;;;;;;18.97;100.00;101602.34;10370071;28;20060;-75
2022/07/20 22:49:55;;;;;;;0.10;0.10;;;;;;;18.94;100.00;101594.66;10385540;28;20021;-75
2022/07/20 22:54:55;;;;;;;0.10;0.10;;;;;;;18.94;100.00;101583.03;10386649;28;20030;-75
2022/07/20 22:59:56;;;;;;;0.10;0.10;;;;;;;19.02;100.00;101585.53;10351034;28;20022;-75
2022/07/20 23:04:56;;;;;;;0.00;0.00;;;;;;;19.06;100.00;101596.81;10367021;28;20140;-73